Time;durP1;ratioP1;P1;durP2;ratioP2;P2;SDS_P1;SDS_P2;PMS_P1;PMS_P2;Temp;Humidity;BMP_temperature;BMP_pressure;BME280_temperature;BME280_humidity;BME280_pressure;Samples;Min_cycle;Max_cycle;Signal;HPM_P1;HPM_P2
2023/05/06 00:01:46;;;;;;;;;;;14.10;95.60;;;;;;4821999;29;19936;-78
2023/05/06 00:04:14;;;;;;;;;;;14.10;95.90;;;;;;4829172;29;19936;-78
2023/05/06 00:06:41;;;;;;;;;;;14.10;95.90;;;;;;4816209;29;19978;-78
2023/05/06 00:09:09;;;;;;;;;;;14.10;96.40;;;;;;4838941;29;20671;-78
2023/05/06 00:11:35;;;;;;;;;;;14.00;96.10;;;;;;4834744;29;20066;-78
2023/05/06 00:14:02;;;;;;;;;;;14.00;96.30;;;;;;4820171;29;19935;-78
2023/05/06 00:16:29;;;;;;;;;;;14.00;96.30;;;;;;4821601;29;19955;-78
2023/05/06 00:18:56;;;;;;;;;;;14.00;96.10;;;;;;4838770;29;19936;-78
2023/05/06 00:21:23;;;;;;;;;;;13.90;96.10;;;;;;4831932;29;20098;-79
2023/05/06 00:23:50;;;;;;;;;;;13.90;96.10;;;;;;4821321;29;19936;-79
2023/05/06 00:26:17;;;;;;;;;;;13.90;95.90;;;;;;4837649;29;22334;-78
2023/05/06 00:28:44;;;;;;;;;;;13.90;96.10;;;;;;4836056;29;20438;-78
2023/05/06 00:31:11;;;;;;;;;;;13.90;96.20;;;;;;4830640;29;19975;-78
2023/05/06 00:33:38;;;;;;;;;;;13.90;96.40;;;;;;4824533;29;20661;-78
2023/05/06 00:36:05;;;;;;;;;;;13.90;96.30;;;;;;4813872;29;20072;-78
2023/05/06 00:38:32;;;;;;;;;;;13.90;96.20;;;;;;4839333;29;20209;-78
2023/05/06 00:40:59;;;;;;;;;;;13.70;96.40;;;;;;4829829;29;19936;-79
2023/05/06 00:43:26;;;;;;;;;;;13.70;97.30;;;;;;4823657;29;19991;-79
2023/05/06 00:45:54;;;;;;;;;;;13.70;97.50;;;;;;4817428;29;20638;-77
2023/05/06 00:48:21;;;;;;;;;;;13.70;97.30;;;;;;4826852;29;19935;-77
2023/05/06 00:50:48;;;;;;;;;;;13.80;97.40;;;;;;4826237;29;19983;-77
2023/05/06 00:53:17;;;;;;;;;;;13.80;97.30;;;;;;4840304;29;20186;-77
2023/05/06 00:55:44;;;;;;;;;;;13.80;97.40;;;;;;4835306;29;19936;-77
2023/05/06 00:58:11;;;;;;;;;;;13.80;97.50;;;;;;4818337;29;19935;-77
2023/05/06 01:00:39;;;;;;;;;;;13.90;97.50;;;;;;4832158;29;19985;-77
2023/05/06 01:03:05;;;;;;;;;;;13.90;97.40;;;;;;4824022;29;19936;-77
2023/05/06 01:05:38;;;;;;;;;;;13.90;97.40;;;;;;4823643;29;19936;-77
2023/05/06 01:08:11;;;;;;;;;;;13.90;97.60;;;;;;4815693;29;19994;-77
2023/05/06 01:10:48;;;;;;;;;;;13.90;97.40;;;;;;4818734;29;19967;-77
2023/05/06 01:13:25;;;;;;;;;;;13.90;97.40;;;;;;4844538;29;20455;-78
2023/05/06 01:15:53;;;;;;;;;;;13.80;97.80;;;;;;4831057;29;19967;-80
2023/05/06 01:18:21;;;;;;;;;;;13.80;98.10;;;;;;4837106;29;19936;-78
2023/05/06 01:20:50;;;;;;;;;;;13.90;98.00;;;;;;4841333;29;19942;-80
2023/05/06 01:23:17;;;;;;;;;;;13.90;98.00;;;;;;4831498;29;19936;-78
2023/05/06 01:25:45;;;;;;;;;;;13.80;97.90;;;;;;4824045;29;19991;-78
2023/05/06 01:28:12;;;;;;;;;;;13.80;98.60;;;;;;4846970;29;20600;-79
2023/05/06 01:30:58;;;;;;;;;;;13.80;99.00;;;;;;4831654;29;22313;-79
2023/05/06 01:33:35;;;;;;;;;;;13.80;98.90;;;;;;4843883;29;19935;-79
2023/05/06 01:36:11;;;;;;;;;;;13.80;99.00;;;;;;4820447;29;19935;-78
2023/05/06 01:39:05;;;;;;;;;;;13.70;99.20;;;;;;4828065;29;20770;-78
2023/05/06 01:41:35;;;;;;;;;;;13.70;99.50;;;;;;4831315;29;19931;-78
2023/05/06 01:44:04;;;;;;;;;;;13.70;99.40;;;;;;4852084;29;19936;-78
2023/05/06 01:46:34;;;;;;;;;;;13.70;99.50;;;;;;4838109;29;20412;-78
2023/05/06 01:49:06;;;;;;;;;;;13.60;99.80;;;;;;4812814;29;20030;-79
2023/05/06 01:51:33;;;;;;;;;;;13.60;99.70;;;;;;4825732;29;21169;-78
2023/05/06 01:54:01;;;;;;;;;;;13.60;99.60;;;;;;4839878;29;21333;-78
2023/05/06 01:56:31;;;;;;;;;;;13.50;99.80;;;;;;4826413;29;19936;-78
2023/05/06 01:58:58;;;;;;;;;;;13.60;99.90;;;;;;4842124;29;19935;-78
2023/05/06 02:01:25;;;;;;;;;;;13.50;99.70;;;;;;4813434;29;19942;-77
2023/05/06 02:03:52;;;;;;;;;;;13.50;99.70;;;;;;4811638;29;20429;-78
2023/05/06 02:06:20;;;;;;;;;;;13.50;99.90;;;;;;4810477;29;19935;-78
2023/05/06 02:08:47;;;;;;;;;;;13.50;99.90;;;;;;4831511;29;20047;-78
2023/05/06 02:11:18;;;;;;;;;;;13.50;99.90;;;;;;4834928;29;19951;-78
2023/05/06 02:13:47;;;;;;;;;;;13.50;99.90;;;;;;4826207;29;22437;-78
2023/05/06 02:16:14;;;;;;;;;;;13.40;99.90;;;;;;4820885;29;20026;-78
2023/05/06 02:18:42;;;;;;;;;;;13.40;99.90;;;;;;4823870;29;20344;-78
2023/05/06 02:21:10;;;;;;;;;;;13.50;99.90;;;;;;4809077;29;19935;-78
2023/05/06 02:23:37;;;;;;;;;;;13.50;99.90;;;;;;4827631;29;20621;-79
2023/05/06 02:26:04;;;;;;;;;;;13.40;99.90;;;;;;4811909;29;19936;-79
2023/05/06 02:28:32;;;;;;;;;;;13.40;99.90;;;;;;4833203;29;20026;-79
2023/05/06 02:30:59;;;;;;;;;;;13.30;99.90;;;;;;4836100;29;19935;-79
2023/05/06 02:33:26;;;;;;;;;;;13.30;99.90;;;;;;4835903;29;19935;-78
2023/05/06 02:35:53;;;;;;;;;;;13.30;99.90;;;;;;4828736;29;19946;-78
2023/05/06 02:38:20;;;;;;;;;;;13.30;99.90;;;;;;4826964;29;19935;-80
2023/05/06 02:40:46;;;;;;;;;;;13.30;99.90;;;;;;4839328;29;20668;-78
2023/05/06 02:43:13;;;;;;;;;;;13.20;99.90;;;;;;4823550;29;19932;-78
2023/05/06 02:45:40;;;;;;;;;;;13.20;99.90;;;;;;4810353;29;19942;-78
2023/05/06 02:48:07;;;;;;;;;;;13.10;99.90;;;;;;4836732;29;22386;-78
2023/05/06 02:50:35;;;;;;;;;;;13.20;99.90;;;;;;4845442;29;20226;-80
2023/05/06 02:53:02;;;;;;;;;;;13.20;99.90;;;;;;4827663;29;19983;-78
2023/05/06 02:55:29;;;;;;;;;;;13.10;99.90;;;;;;4854382;29;20414;-78
2023/05/06 02:57:56;;;;;;;;;;;13.10;99.90;;;;;;4836530;29;19935;-78
2023/05/06 03:00:24;;;;;;;;;;;13.10;99.90;;;;;;4826830;29;20291;-78
2023/05/06 03:02:51;;;;;;;;;;;13.10;99.90;;;;;;4827299;29;19936;-78
2023/05/06 03:05:18;;;;;;;;;;;13.10;99.90;;;;;;4812015;29;20090;-79
2023/05/06 03:07:45;;;;;;;;;;;13.10;99.90;;;;;;4812103;29;19936;-79
2023/05/06 03:10:13;;;;;;;;;;;13.10;99.90;;;;;;4810548;29;22417;-79
2023/05/06 03:12:40;;;;;;;;;;;13.00;99.90;;;;;;4837052;29;22287;-79
2023/05/06 03:15:07;;;;;;;;;;;13.00;99.90;;;;;;4811826;29;20545;-79
2023/05/06 03:17:36;;;;;;;;;;;13.00;99.90;;;;;;4840998;29;19935;-79
2023/05/06 03:20:07;;;;;;;;;;;13.00;99.90;;;;;;4836163;29;19935;-78
2023/05/06 03:22:36;;;;;;;;;;;13.00;99.90;;;;;;4812708;29;19942;-78
2023/05/06 03:25:03;;;;;;;;;;;13.00;99.90;;;;;;4832827;29;19928;-78
2023/05/06 03:27:32;;;;;;;;;;;13.00;99.90;;;;;;4839997;29;19932;-78
2023/05/06 03:30:04;;;;;;;;;;;13.00;99.90;;;;;;4833081;29;20577;-78
2023/05/06 03:32:32;;;;;;;;;;;13.00;99.90;;;;;;4834458;29;20064;-78
2023/05/06 03:34:59;;;;;;;;;;;13.00;99.90;;;;;;4808336;29;21395;-78
2023/05/06 03:37:26;;;;;;;;;;;12.90;99.90;;;;;;4807356;29;19940;-78
2023/05/06 03:39:55;;;;;;;;;;;13.00;99.90;;;;;;4813882;29;20030;-78
2023/05/06 03:42:25;;;;;;;;;;;13.00;99.90;;;;;;4826011;29;20833;-79
2023/05/06 03:44:52;;;;;;;;;;;13.00;99.90;;;;;;4816432;29;20085;-79
2023/05/06 03:47:20;;;;;;;;;;;13.00;99.90;;;;;;4859419;29;19941;-78
2023/05/06 03:49:47;;;;;;;;;;;13.00;99.90;;;;;;4810967;29;19982;-78
2023/05/06 03:52:14;;;;;;;;;;;13.10;99.90;;;;;;4812103;29;19943;-78
2023/05/06 03:54:41;;;;;;;;;;;13.10;99.90;;;;;;4832906;29;19935;-78
2023/05/06 03:57:08;;;;;;;;;;;13.10;99.90;;;;;;4819657;29;19935;-79
2023/05/06 03:59:35;;;;;;;;;;;13.10;99.90;;;;;;4829943;29;19936;-78
2023/05/06 04:02:04;;;;;;;;;;;13.10;99.90;;;;;;4815422;29;19936;-79
2023/05/06 04:04:34;;;;;;;;;;;13.20;99.90;;;;;;4834168;29;19955;-79
2023/05/06 04:07:02;;;;;;;;;;;13.30;99.90;;;;;;4849166;29;19931;-79
2023/05/06 04:09:30;;;;;;;;;;;13.30;99.90;;;;;;4849842;29;19943;-79
2023/05/06 04:11:57;;;;;;;;;;;13.30;99.90;;;;;;4836068;29;19970;-79
2023/05/06 04:14:25;;;;;;;;;;;13.30;99.90;;;;;;4845459;29;22145;-79
2023/05/06 04:16:52;;;;;;;;;;;13.40;99.90;;;;;;4827541;29;20069;-78
2023/05/06 04:19:20;;;;;;;;;;;13.40;99.90;;;;;;4829449;29;20072;-79
2023/05/06 04:21:47;;;;;;;;;;;13.50;99.90;;;;;;4835075;29;20296;-79
2023/05/06 04:24:16;;;;;;;;;;;13.50;99.90;;;;;;4831278;29;19931;-80
2023/05/06 04:26:43;;;;;;;;;;;13.50;99.90;;;;;;4846933;29;19931;-79
2023/05/06 04:29:11;;;;;;;;;;;13.60;99.90;;;;;;4821097;29;19935;-79
2023/05/06 04:31:52;;;;;;;;;;;13.60;99.90;;;;;;4827854;29;20707;-78
2023/05/06 04:34:20;;;;;;;;;;;13.60;99.90;;;;;;4838337;29;19936;-78
2023/05/06 04:36:48;;;;;;;;;;;13.60;99.90;;;;;;4821899;29;19942;-79
2023/05/06 04:39:26;;;;;;;;;;;13.70;99.90;;;;;;4849857;29;19931;-79
2023/05/06 04:41:53;;;;;;;;;;;13.70;99.90;;;;;;4841970;29;19942;-79
2023/05/06 04:44:28;;;;;;;;;;;13.70;99.90;;;;;;4820580;29;19983;-79
2023/05/06 04:46:55;;;;;;;;;;;13.70;99.90;;;;;;4810070;29;20407;-79
2023/05/06 04:49:22;;;;;;;;;;;13.80;99.90;;;;;;4853414;29;20372;-78
2023/05/06 04:51:50;;;;;;;;;;;13.80;99.90;;;;;;4849838;29;19927;-78
2023/05/06 04:54:17;;;;;;;;;;;13.90;99.90;;;;;;4825068;29;19936;-78
2023/05/06 04:56:45;;;;;;;;;;;13.90;99.90;;;;;;4842015;29;20070;-79
2023/05/06 04:59:14;;;;;;;;;;;13.90;99.90;;;;;;4829287;29;19936;-78
2023/05/06 05:01:42;;;;;;;;;;;14.00;99.90;;;;;;4807614;29;20421;-78
2023/05/06 05:04:10;;;;;;;;;;;14.00;99.90;;;;;;4829151;29;20528;-78
2023/05/06 05:06:38;;;;;;;;;;;14.10;99.90;;;;;;4837617;29;20113;-79
2023/05/06 05:09:05;;;;;;;;;;;14.10;99.90;;;;;;4838872;29;19963;-79
2023/05/06 05:11:35;;;;;;;;;;;14.10;99.90;;;;;;4831962;29;19931;-79
2023/05/06 05:14:03;;;;;;;;;;;14.20;99.90;;;;;;4840934;29;20319;-78
2023/05/06 05:16:30;;;;;;;;;;;14.20;99.90;;;;;;4820830;29;19935;-78
2023/05/06 05:18:59;;;;;;;;;;;14.10;99.90;;;;;;4839435;29;19935;-79
2023/05/06 05:21:30;;;;;;;;;;;14.20;99.90;;;;;;4830538;29;19954;-79
2023/05/06 05:23:58;;;;;;;;;;;14.30;99.90;;;;;;4838647;29;19965;-79
2023/05/06 05:26:25;;;;;;;;;;;14.30;99.90;;;;;;4827591;29;20253;-78
2023/05/06 05:28:53;;;;;;;;;;;14.40;99.90;;;;;;4841841;29;19935;-78
2023/05/06 05:31:21;;;;;;;;;;;14.50;99.90;;;;;;4824446;29;19936;-78
2023/05/06 05:33:49;;;;;;;;;;;14.50;99.90;;;;;;4842779;29;19936;-78
2023/05/06 05:36:20;;;;;;;;;;;14.60;99.90;;;;;;4818573;29;19983;-78
2023/05/06 05:38:49;;;;;;;;;;;14.60;99.90;;;;;;4830328;29;20370;-78
2023/05/06 05:41:17;;;;;;;;;;;14.50;99.90;;;;;;4835522;29;19974;-77
2023/05/06 05:43:44;;;;;;;;;;;14.40;99.90;;;;;;4831522;29;19935;-78
2023/05/06 05:46:13;;;;;;;;;;;14.60;99.90;;;;;;4841293;29;19935;-78
2023/05/06 05:48:42;;;;;;;;;;;14.70;99.90;;;;;;4829367;29;20031;-78
2023/05/06 05:51:10;;;;;;;;;;;14.90;99.90;;;;;;4808425;29;19936;-78
2023/05/06 05:53:38;;;;;;;;;;;15.10;99.90;;;;;;4839902;29;19942;-79
2023/05/06 05:56:06;;;;;;;;;;;15.30;99.90;;;;;;4815267;29;20660;-78
2023/05/06 05:58:33;;;;;;;;;;;15.60;99.90;;;;;;4832259;29;20435;-78
2023/05/06 06:01:00;;;;;;;;;;;15.80;99.40;;;;;;4843823;29;20034;-79
2023/05/06 06:03:28;;;;;;;;;;;16.00;99.20;;;;;;4822995;29;22116;-79
2023/05/06 06:05:55;;;;;;;;;;;16.40;98.80;;;;;;4834784;29;19936;-79
2023/05/06 06:08:25;;;;;;;;;;;16.50;98.70;;;;;;4825332;29;22228;-79
2023/05/06 06:10:57;;;;;;;;;;;16.60;97.60;;;;;;4843773;29;19992;-79
2023/05/06 06:13:32;;;;;;;;;;;16.70;97.00;;;;;;4820474;29;20044;-79
2023/05/06 06:16:00;;;;;;;;;;;17.00;97.20;;;;;;4832657;29;19935;-81
2023/05/06 06:18:28;;;;;;;;;;;17.10;97.00;;;;;;4849008;29;19956;-79
2023/05/06 06:20:55;;;;;;;;;;;17.30;96.00;;;;;;4848261;29;20016;-79
2023/05/06 06:23:23;;;;;;;;;;;17.40;95.70;;;;;;4829454;29;19936;-79
2023/05/06 06:25:51;;;;;;;;;;;17.50;95.80;;;;;;4831332;29;20513;-79
2023/05/06 06:28:18;;;;;;;;;;;17.70;96.20;;;;;;4846583;29;19935;-79
2023/05/06 06:30:45;;;;;;;;;;;17.90;95.70;;;;;;4834786;29;20026;-79
2023/05/06 06:33:12;;;;;;;;;;;18.00;95.20;;;;;;4867635;29;19935;-79
2023/05/06 06:35:39;;;;;;;;;;;18.10;94.90;;;;;;4847895;29;19936;-79
2023/05/06 06:38:07;;;;;;;;;;;18.10;95.20;;;;;;4871098;23;20018;-79
2023/05/06 06:40:34;;;;;;;;;;;18.20;94.90;;;;;;4828308;29;20380;-79
2023/05/06 06:43:12;;;;;;;;;;;18.40;95.00;;;;;;4877149;23;19931;-95
2023/05/06 06:45:49;;;;;;;;;;;18.50;94.30;;;;;;4865689;29;19928;-96
2023/05/06 06:55:44;;;;;;;;;;;19.00;93.60;;;;;;4868279;29;20385;-96
2023/05/06 07:05:25;;;;;;;;;;;19.50;92.30;;;;;;4862502;29;19947;-93
2023/05/06 07:08:05;;;;;;;;;;;19.70;92.10;;;;;;4869685;29;19975;-93
2023/05/06 07:10:55;;;;;;;;;;;19.80;91.80;;;;;;4868366;29;19928;-93
2023/05/06 07:13:22;;;;;;;;;;;19.90;90.50;;;;;;4865977;29;19936;-92
2023/05/06 07:19:33;;;;;;;;;;;20.10;89.90;;;;;;4880844;29;19919;-90
2023/05/06 07:22:36;;;;;;;;;;;;;;;;;;;;;
2023/05/06 07:26:37;;;;;;;;;;;20.20;87.50;;;;;;4858068;29;19935;-94
2023/05/06 07:29:10;;;;;;;;;;;20.40;87.90;;;;;;4795761;29;20346;-87
2023/05/06 07:31:39;;;;;;;;;;;20.50;88.40;;;;;;4816534;29;19932;-90
2023/05/06 07:34:08;;;;;;;;;;;20.60;88.40;;;;;;4825503;29;21203;-91
2023/05/06 07:37:02;;;;;;;;;;;20.70;87.30;;;;;;4814968;29;20051;-90
2023/05/06 07:42:39;;;;;;;;;;;21.10;86.30;;;;;;4873486;29;20373;-91
2023/05/06 07:45:49;;;;;;;;;;;21.10;86.00;;;;;;4861638;29;19942;-91
2023/05/06 07:49:35;;;;;;;;;;;21.20;84.70;;;;;;4846182;29;19935;-90
2023/05/06 07:51:55;;;;;;;;;;;20.80;82.70;;;;;;4852257;29;19935;-88
2023/05/06 07:54:23;;;;;;;;;;;21.50;83.00;;;;;;4858248;29;19936;-91
2023/05/06 07:56:56;;;;;;;;;;;21.90;82.00;;;;;;4852738;29;20032;-88
2023/05/06 07:59:29;;;;;;;;;;;22.10;82.30;;;;;;4863078;29;19943;-88
2023/05/06 08:02:01;;;;;;;;;;;21.90;80.70;;;;;;4865952;29;19931;-85
2023/05/06 08:04:33;;;;;;;;;;;22.00;80.60;;;;;;4846846;29;19931;-93
2023/05/06 08:07:17;;;;;;;;;;;22.10;80.70;;;;;;4858676;29;19935;-86
2023/05/06 08:09:45;;;;;;;;;;;22.10;78.80;;;;;;4848159;29;19934;-88
2023/05/06 08:12:14;;;;;;;;;;;22.30;78.60;;;;;;4841650;29;19942;-87
2023/05/06 08:14:49;;;;;;;;;;;22.20;79.40;;;;;;4843329;29;22468;-87
2023/05/06 08:17:16;;;;;;;;;;;22.00;79.00;;;;;;4857890;29;19936;-87
2023/05/06 08:19:47;;;;;;;;;;;22.30;79.30;;;;;;4836220;29;19937;-87
2023/05/06 08:22:31;;;;;;;;;;;22.30;78.40;;;;;;4860077;29;20076;-87
2023/05/06 08:24:59;;;;;;;;;;;21.20;78.30;;;;;;4844676;29;19964;-86
2023/05/06 08:28:14;;;;;;;;;;;22.10;79.20;;;;;;4853000;29;20728;-86
2023/05/06 08:30:47;;;;;;;;;;;22.60;79.70;;;;;;4835627;29;20777;-91
2023/05/06 08:33:14;;;;;;;;;;;22.80;79.00;;;;;;4836428;29;19943;-87
2023/05/06 08:35:51;;;;;;;;;;;22.90;78.90;;;;;;4837819;29;20030;-86
2023/05/06 08:38:30;;;;;;;;;;;23.00;77.60;;;;;;4847696;29;19943;-86
2023/05/06 08:42:17;;;;;;;;;;;23.00;77.80;;;;;;4828809;29;19971;-87
2023/05/06 08:49:04;;;;;;;;;;;23.30;77.10;;;;;;4764447;29;20547;-87
2023/05/06 08:51:51;;;;;;;;;;;23.00;77.40;;;;;;4786670;29;19972;-88
2023/05/06 08:54:59;;;;;;;;;;;23.30;74.60;;;;;;4819425;29;19944;-86
2023/05/06 08:58:02;;;;;;;;;;;23.10;74.40;;;;;;4821689;29;20366;-85
2023/05/06 09:00:56;;;;;;;;;;;22.10;72.90;;;;;;4828285;29;19943;-88
2023/05/06 09:03:26;;;;;;;;;;;23.90;74.40;;;;;;4841516;29;19943;-93
2023/05/06 09:05:54;;;;;;;;;;;22.90;73.10;;;;;;4818055;29;20965;-84
2023/05/06 09:08:24;;;;;;;;;;;23.00;72.80;;;;;;4828429;29;20411;-87
2023/05/06 09:10:52;;;;;;;;;;;23.10;73.00;;;;;;4826537;29;19932;-91
2023/05/06 09:13:19;;;;;;;;;;;23.20;73.60;;;;;;4847003;29;19936;-94
2023/05/06 09:15:47;;;;;;;;;;;23.10;72.50;;;;;;4830483;29;21058;-89
2023/05/06 09:18:21;;;;;;;;;;;22.90;72.30;;;;;;4849055;29;20670;-90
2023/05/06 09:20:48;;;;;;;;;;;23.40;73.40;;;;;;4842829;29;19939;-89
2023/05/06 09:23:16;;;;;;;;;;;23.40;73.70;;;;;;4836047;29;22593;-90
2023/05/06 09:25:49;;;;;;;;;;;23.60;73.00;;;;;;4832796;29;20388;-88
2023/05/06 09:28:20;;;;;;;;;;;23.70;72.30;;;;;;4863584;29;19931;-87
2023/05/06 09:31:38;;;;;;;;;;;23.70;72.30;;;;;;4850671;29;19935;-90
2023/05/06 09:34:06;;;;;;;;;;;23.90;73.20;;;;;;4843651;29;19928;-88
2023/05/06 09:37:00;;;;;;;;;;;23.80;71.00;;;;;;4866749;29;19936;-92
2023/05/06 09:39:35;;;;;;;;;;;23.80;71.50;;;;;;4835500;29;20366;-84
2023/05/06 09:42:02;;;;;;;;;;;24.00;72.10;;;;;;4863502;29;19942;-90
2023/05/06 09:44:36;;;;;;;;;;;23.80;71.30;;;;;;4873741;29;20373;-84
2023/05/06 09:47:13;;;;;;;;;;;23.90;71.60;;;;;;4859635;29;20745;-87
2023/05/06 09:49:40;;;;;;;;;;;24.00;71.70;;;;;;4863893;29;19927;-86
2023/05/06 09:52:08;;;;;;;;;;;24.50;69.70;;;;;;4865824;29;19931;-87
2023/05/06 09:55:05;;;;;;;;;;;24.00;69.20;;;;;;4845409;29;19931;-85
2023/05/06 09:58:21;;;;;;;;;;;24.20;69.10;;;;;;4864577;29;19932;-88
2023/05/06 10:00:50;;;;;;;;;;;24.70;70.80;;;;;;4864027;29;20031;-89
2023/05/06 10:03:19;;;;;;;;;;;24.60;70.30;;;;;;4862756;29;19943;-86
2023/05/06 10:05:46;;;;;;;;;;;24.60;67.20;;;;;;4865036;29;20261;-89
2023/05/06 10:08:26;;;;;;;;;;;24.60;66.90;;;;;;4868607;29;19967;-91
2023/05/06 10:10:55;;;;;;;;;;;24.50;66.00;;;;;;4861135;29;20077;-93
2023/05/06 10:13:28;;;;;;;;;;;24.00;66.70;;;;;;4865850;29;19935;-93
2023/05/06 10:16:04;;;;;;;;;;;23.90;66.20;;;;;;4877178;29;19935;-85
2023/05/06 10:18:33;;;;;;;;;;;23.70;67.60;;;;;;4880515;29;19938;-94
2023/05/06 10:21:05;;;;;;;;;;;23.50;67.00;;;;;;4882538;29;19965;-93
2023/05/06 10:23:43;;;;;;;;;;;23.30;66.40;;;;;;4866696;29;19938;-92
2023/05/06 10:26:21;;;;;;;;;;;23.50;66.50;;;;;;4824322;29;19936;-91
2023/05/06 10:28:53;;;;;;;;;;;23.70;67.60;;;;;;4816385;29;19929;-88
2023/05/06 10:31:20;;;;;;;;;;;23.80;67.40;;;;;;4821436;29;19943;-88
2023/05/06 10:34:06;;;;;;;;;;;23.90;66.30;;;;;;4828315;29;19933;-92
2023/05/06 10:37:08;;;;;;;;;;;23.80;66.00;;;;;;4824222;29;19929;-90
2023/05/06 10:39:39;;;;;;;;;;;24.00;66.10;;;;;;4795365;29;19936;-90
2023/05/06 10:42:15;;;;;;;;;;;24.20;66.50;;;;;;4830138;29;19932;-93
2023/05/06 10:45:07;;;;;;;;;;;24.50;66.30;;;;;;4815337;29;19935;-88
2023/05/06 10:47:56;;;;;;;;;;;24.30;65.70;;;;;;4829165;29;19935;-92
2023/05/06 10:50:27;;;;;;;;;;;24.50;67.00;;;;;;4841465;29;20406;-95
2023/05/06 10:52:58;;;;;;;;;;;24.60;64.30;;;;;;4832825;29;19983;-87
2023/05/06 10:55:34;;;;;;;;;;;24.40;64.30;;;;;;4855410;29;19937;-91
2023/05/06 10:58:14;;;;;;;;;;;24.30;65.30;;;;;;4853870;29;19943;-94
2023/05/06 11:00:52;;;;;;;;;;;23.80;65.30;;;;;;4845386;29;20022;-91
2023/05/06 11:03:22;;;;;;;;;;;23.80;65.20;;;;;;4830990;29;19931;-91
2023/05/06 11:05:50;;;;;;;;;;;23.90;65.30;;;;;;4865791;29;19979;-93
2023/05/06 11:08:25;;;;;;;;;;;24.10;65.70;;;;;;4845515;29;19936;-90
2023/05/06 11:11:13;;;;;;;;;;;24.20;65.50;;;;;;4854054;29;20014;-95
2023/05/06 11:14:11;;;;;;;;;;;24.10;63.70;;;;;;4854364;29;19939;-95
2023/05/06 11:16:50;;;;;;;;;;;24.20;66.10;;;;;;4828487;29;19936;-90
2023/05/06 11:19:22;;;;;;;;;;;24.20;64.10;;;;;;4823640;29;19932;-89
2023/05/06 11:21:57;;;;;;;;;;;24.60;63.60;;;;;;4813148;29;20751;-86
2023/05/06 11:24:26;;;;;;;;;;;24.70;62.30;;;;;;4835236;29;20023;-94
2023/05/06 11:26:57;;;;;;;;;;;24.60;61.70;;;;;;4827333;29;19942;-88
2023/05/06 11:29:24;;;;;;;;;;;24.50;62.70;;;;;;4828717;29;20298;-93
2023/05/06 11:31:54;;;;;;;;;;;24.50;61.50;;;;;;4827916;29;19954;-88
2023/05/06 11:34:24;;;;;;;;;;;24.40;60.30;;;;;;4834246;29;20025;-85
2023/05/06 11:37:27;;;;;;;;;;;24.60;59.90;;;;;;4828916;29;19969;-95
2023/05/06 11:40:30;;;;;;;;;;;24.30;59.30;;;;;;4807717;29;20470;-95
2023/05/06 11:43:28;;;;;;;;;;;23.90;59.80;;;;;;4812595;29;19936;-87
2023/05/06 11:45:57;;;;;;;;;;;24.10;62.40;;;;;;4831486;29;19980;-90
2023/05/06 11:48:24;;;;;;;;;;;24.00;62.70;;;;;;4827369;29;19938;-89
2023/05/06 11:50:53;;;;;;;;;;;23.80;63.00;;;;;;4807933;29;19936;-90
2023/05/06 11:53:21;;;;;;;;;;;23.70;63.40;;;;;;4829470;29;19977;-91
2023/05/06 11:55:50;;;;;;;;;;;23.70;63.10;;;;;;4857135;29;20200;-93
2023/05/06 11:58:24;;;;;;;;;;;23.80;64.20;;;;;;4844705;29;19978;-93
2023/05/06 12:01:02;;;;;;;;;;;23.80;63.40;;;;;;4871556;29;19938;-94
2023/05/06 12:03:30;;;;;;;;;;;23.80;64.20;;;;;;4876938;29;19982;-94
2023/05/06 12:06:01;;;;;;;;;;;23.90;64.00;;;;;;4845818;29;19936;-93
2023/05/06 12:08:41;;;;;;;;;;;23.90;64.10;;;;;;4853888;29;19935;-91
2023/05/06 12:11:12;;;;;;;;;;;24.00;63.90;;;;;;4868193;29;19935;-89
2023/05/06 12:13:43;;;;;;;;;;;24.30;63.20;;;;;;4851216;29;20026;-93
2023/05/06 12:16:26;;;;;;;;;;;;;;;;;;;;;
2023/05/06 12:19:19;;;;;;;;;;;24.90;61.80;;;;;;4871479;29;20065;-91
2023/05/06 12:22:20;;;;;;;;;;;24.10;60.70;;;;;;4846321;29;19987;-93
2023/05/06 12:24:51;;;;;;;;;;;24.20;61.10;;;;;;4862013;29;19938;-92
2023/05/06 12:27:58;;;;;;;;;;;23.90;62.00;;;;;;4851742;29;20694;-92
2023/05/06 12:30:48;;;;;;;;;;;23.80;61.90;;;;;;4832524;29;20045;-95
2023/05/06 12:33:44;;;;;;;;;;;23.80;60.50;;;;;;4863335;29;19932;-92
2023/05/06 12:36:23;;;;;;;;;;;23.70;62.20;;;;;;4832255;29;19935;-92
2023/05/06 12:39:06;;;;;;;;;;;23.80;60.80;;;;;;4833919;29;19939;-92
2023/05/06 12:41:38;;;;;;;;;;;23.80;62.60;;;;;;4848672;29;19936;-94
2023/05/06 12:44:27;;;;;;;;;;;23.60;62.40;;;;;;4851102;29;19935;-94
2023/05/06 12:48:01;;;;;;;;;;;23.50;62.90;;;;;;4852707;29;20685;-92
2023/05/06 12:51:22;;;;;;;;;;;23.30;63.40;;;;;;4849999;29;19939;-91
2023/05/06 12:54:24;;;;;;;;;;;23.40;63.20;;;;;;4858266;29;19932;-93
2023/05/06 12:56:56;;;;;;;;;;;24.80;64.30;;;;;;4844693;29;19936;-91
2023/05/06 12:59:29;;;;;;;;;;;23.60;63.10;;;;;;4851915;29;20478;-91
2023/05/06 13:02:35;;;;;;;;;;;23.30;63.70;;;;;;4821500;29;20398;-88
2023/05/06 13:05:04;;;;;;;;;;;23.80;64.10;;;;;;4809402;29;19929;-91
2023/05/06 13:07:55;;;;;;;;;;;23.60;62.80;;;;;;4802103;29;20461;-92
2023/05/06 13:13:36;;;;;;;;;;;23.60;64.10;;;;;;4809293;29;20394;-91
2023/05/06 13:16:26;;;;;;;;;;;23.60;64.70;;;;;;4770504;29;19938;-90
2023/05/06 13:19:15;;;;;;;;;;;;;;;;;;;;;
2023/05/06 13:22:28;;;;;;;;;;;23.40;65.80;;;;;;4829365;29;19932;-91
2023/05/06 13:25:31;;;;;;;;;;;23.40;66.00;;;;;;4826947;29;19979;-89
2023/05/06 13:29:04;;;;;;;;;;;23.30;66.20;;;;;;4828428;29;19984;-92
2023/05/06 13:31:55;;;;;;;;;;;23.00;65.90;;;;;;4813976;29;19937;-93
2023/05/06 13:35:37;;;;;;;;;;;23.00;65.60;;;;;;4853800;29;19936;-92
2023/05/06 13:39:17;;;;;;;;;;;23.00;64.90;;;;;;4821228;29;23184;-96
2023/05/06 13:41:52;;;;;;;;;;;22.90;65.70;;;;;;4795135;29;19928;-91
2023/05/06 13:44:55;;;;;;;;;;;22.90;66.50;;;;;;4811285;29;20008;-92
2023/05/06 13:47:44;;;;;;;;;;;22.70;66.50;;;;;;4826039;29;19936;-92
2023/05/06 13:50:34;;;;;;;;;;;23.20;66.70;;;;;;4816339;29;19943;-92
2023/05/06 13:57:18;;;;;;;;;;;22.80;66.60;;;;;;4826215;29;19980;-95
2023/05/06 13:59:39;;;;;;;;;;;23.00;67.70;;;;;;4824137;29;19943;-90
2023/05/06 14:02:27;;;;;;;;;;;22.60;68.20;;;;;;4827090;29;19954;-92
2023/05/06 14:04:54;;;;;;;;;;;22.60;68.50;;;;;;4846998;29;19939;-92
2023/05/06 14:07:26;;;;;;;;;;;22.40;68.10;;;;;;4846464;29;19936;-88
2023/05/06 14:09:57;;;;;;;;;;;22.50;68.90;;;;;;4810202;29;20792;-93
2023/05/06 14:12:52;;;;;;;;;;;22.40;68.20;;;;;;4821218;29;19932;-90
2023/05/06 14:15:29;;;;;;;;;;;22.40;67.70;;;;;;4842328;29;20053;-92
2023/05/06 14:17:56;;;;;;;;;;;22.40;67.80;;;;;;4848357;29;19936;-96
2023/05/06 14:24:15;;;;;;;;;;;22.30;68.00;;;;;;4846222;29;20022;-95
2023/05/06 14:27:34;;;;;;;;;;;22.30;68.10;;;;;;4856797;29;19939;-93
2023/05/06 14:30:07;;;;;;;;;;;22.10;70.70;;;;;;4875440;29;20317;-88
2023/05/06 14:32:57;;;;;;;;;;;20.70;71.80;;;;;;4866047;29;19939;-89
2023/05/06 14:35:25;;;;;;;;;;;21.50;73.50;;;;;;4865245;29;19931;-94
2023/05/06 14:38:03;;;;;;;;;;;21.50;75.20;;;;;;4850859;29;19960;-96
2023/05/06 14:44:47;;;;;;;;;;;21.20;75.60;;;;;;4770086;30;21685;-94
2023/05/06 14:47:22;;;;;;;;;;;22.10;76.70;;;;;;4773139;30;19933;-91
2023/05/06 14:53:40;;;;;;;;;;;20.90;76.30;;;;;;4750718;30;19930;-94
2023/05/06 14:59:19;;;;;;;;;;;20.80;76.40;;;;;;4751752;30;19976;-93
2023/05/06 15:01:48;;;;;;;;;;;20.80;76.80;;;;;;4736292;30;19938;-96
2023/05/06 15:04:16;;;;;;;;;;;20.80;77.40;;;;;;4721920;30;20541;-94
2023/05/06 15:07:23;;;;;;;;;;;20.60;78.40;;;;;;4742740;30;19938;-90
2023/05/06 15:10:06;;;;;;;;;;;20.70;79.30;;;;;;4731192;30;20012;-93
2023/05/06 15:13:42;;;;;;;;;;;19.80;79.40;;;;;;4811670;29;19937;-96
2023/05/06 15:19:57;;;;;;;;;;;20.30;80.50;;;;;;4823968;29;19982;-78
2023/05/06 15:22:24;;;;;;;;;;;20.40;80.50;;;;;;4826696;29;19936;-78
2023/05/06 15:24:52;;;;;;;;;;;20.30;81.50;;;;;;4820746;29;19936;-77
2023/05/06 15:27:19;;;;;;;;;;;20.40;81.70;;;;;;4821324;29;19943;-78
2023/05/06 15:29:46;;;;;;;;;;;20.30;82.20;;;;;;4807606;29;20396;-77
2023/05/06 15:32:13;;;;;;;;;;;20.30;82.60;;;;;;4820549;29;19936;-78
2023/05/06 15:34:40;;;;;;;;;;;20.10;83.10;;;;;;4834037;29;19935;-77
2023/05/06 15:37:07;;;;;;;;;;;20.20;83.70;;;;;;4820873;29;20004;-77
2023/05/06 15:39:37;;;;;;;;;;;20.20;83.80;;;;;;4828635;29;19943;-78
2023/05/06 15:42:04;;;;;;;;;;;20.10;84.10;;;;;;4810236;29;19943;-78
2023/05/06 15:44:32;;;;;;;;;;;20.00;84.00;;;;;;4812767;29;19936;-77
2023/05/06 15:46:59;;;;;;;;;;;20.10;84.60;;;;;;4808843;29;19936;-78
2023/05/06 15:49:26;;;;;;;;;;;20.20;84.90;;;;;;4816206;29;19943;-77
2023/05/06 15:51:56;;;;;;;;;;;20.30;84.80;;;;;;4821641;29;20494;-78
2023/05/06 15:54:27;;;;;;;;;;;20.30;85.40;;;;;;4822369;29;19987;-77
2023/05/06 15:56:55;;;;;;;;;;;20.20;85.40;;;;;;4808528;29;19936;-77
2023/05/06 15:59:22;;;;;;;;;;;20.20;85.70;;;;;;4836235;29;20484;-77